Terminal Aerodrome Forecast
Issued by NWS

Home | Current Version | Previous Version | Text Only | Print | Product List | Glossary Off
Versions: 1 2 3 4 5 6 7 8 9 10 11 12 13 14 15 16 17 18

000
FTUS43 KGRB 221732
TAFCWA
TAF
KCWA 221732Z 2218/2318 29005KT P6SM SCT045
     FM230100 VRB03KT P6SM SKC
      TEMPO 2307/2311 1SM BR SCT007
     FM231400 11005KT P6SM FEW150=

USA.gov is the U.S. government's official web portal to all federal, state and local government web resources and services.